createdAt,value
2023-05-21T00:01:31.046Z,80.53
2023-05-21T00:04:34.273Z,80.72
2023-05-21T00:07:38.670Z,80.61
2023-05-21T00:10:41.367Z,80.48
2023-05-21T00:13:44.153Z,80.57
2023-05-21T00:16:47.189Z,80.15
2023-05-21T00:19:50.435Z,80.36
2023-05-21T00:22:55.714Z,80.28
2023-05-21T00:25:58.483Z,80.75
2023-05-21T00:29:01.294Z,80.40
2023-05-21T00:32:04.462Z,80.81
2023-05-21T00:35:09.007Z,80.77
2023-05-21T00:38:14.346Z,80.88
2023-05-21T00:41:17.441Z,81.31
2023-05-21T00:44:20.658Z,81.34
2023-05-21T00:47:23.916Z,81.12
2023-05-21T00:50:27.831Z,81.41
2023-05-21T00:53:34.964Z,81.50
2023-05-21T00:56:38.302Z,81.37
2023-05-21T00:59:41.151Z,81.16
2023-05-21T01:02:45.339Z,81.04
2023-05-21T01:05:48.857Z,81.27
2023-05-21T01:08:53.383Z,81.14
2023-05-21T01:11:57.481Z,81.18
2023-05-21T01:15:02.153Z,81.28
2023-05-21T01:18:06.008Z,81.70
2023-05-21T01:21:09.788Z,81.76
2023-05-21T01:24:13.935Z,82.10
2023-05-21T01:27:16.829Z,81.76
2023-05-21T01:30:21.755Z,82.00
2023-05-21T01:33:28.950Z,82.10
2023-05-21T01:36:40.867Z,82.14
2023-05-21T01:39:48.623Z,81.95
2023-05-21T01:42:51.667Z,82.16
2023-05-21T01:45:56.811Z,82.24
2023-05-21T01:48:59.903Z,82.59
2023-05-21T01:52:04.397Z,82.38
2023-05-21T01:55:09.179Z,82.46
2023-05-21T01:58:11.951Z,82.69
2023-05-21T02:01:14.938Z,82.58
2023-05-21T02:04:17.685Z,82.89
2023-05-21T02:07:20.442Z,82.96
2023-05-21T02:10:27.995Z,83.01
2023-05-21T02:13:34.488Z,83.17
2023-05-21T02:16:38.438Z,83.00
2023-05-21T02:19:41.857Z,83.37
2023-05-21T02:22:46.270Z,83.36
2023-05-21T02:25:50.421Z,83.03
2023-05-21T02:28:54.089Z,83.27
2023-05-21T02:31:56.858Z,83.42
2023-05-21T02:34:59.818Z,83.61
2023-05-21T02:38:03.157Z,83.28
2023-05-21T02:41:07.586Z,83.72
2023-05-21T02:44:10.317Z,83.53
2023-05-21T02:47:13.054Z,83.99
2023-05-21T02:50:16.048Z,83.83
2023-05-21T02:53:18.790Z,83.99
2023-05-21T02:56:23.324Z,84.34
2023-05-21T02:59:26.095Z,83.98
2023-05-21T03:02:29.343Z,84.42
2023-05-21T03:05:32.188Z,84.48
2023-05-21T03:08:35.023Z,84.29
2023-05-21T03:11:39.110Z,84.70
2023-05-21T03:14:44.204Z,84.85
2023-05-21T03:17:48.316Z,84.49
2023-05-21T03:20:51.473Z,84.81
2023-05-21T03:23:58.621Z,84.50
2023-05-21T03:27:02.863Z,84.72
2023-05-21T03:30:06.955Z,84.94
2023-05-21T03:33:11.182Z,84.81
2023-05-21T03:36:14.169Z,85.26
2023-05-21T03:39:17.138Z,85.33
2023-05-21T03:42:21.244Z,85.62
2023-05-21T03:45:23.957Z,85.36
2023-05-21T03:48:26.774Z,85.66
2023-05-21T03:51:30.813Z,85.95
2023-05-21T03:54:33.547Z,85.88
2023-05-21T03:57:37.769Z,85.88
2023-05-21T04:00:40.631Z,86.13
2023-05-21T04:03:43.697Z,85.81
2023-05-21T04:06:46.525Z,85.90
2023-05-21T04:09:49.376Z,85.96
2023-05-21T04:12:53.583Z,86.13
2023-05-21T04:15:56.440Z,86.15
2023-05-21T04:18:59.623Z,86.16
2023-05-21T04:22:03.168Z,85.90
2023-05-21T04:25:06.363Z,85.50
2023-05-21T04:28:11.060Z,85.39
2023-05-21T04:31:14.044Z,85.06
2023-05-21T04:34:18.888Z,84.84
2023-05-21T04:37:24.639Z,84.74
2023-05-21T04:40:27.366Z,84.28
2023-05-21T04:43:32.095Z,84.00
2023-05-21T04:46:35.847Z,83.39
2023-05-21T04:49:38.917Z,83.93
2023-05-21T04:52:41.761Z,83.63
2023-05-21T04:55:44.515Z,83.20
2023-05-21T04:58:49.332Z,83.35
2023-05-21T05:01:52.692Z,82.81
2023-05-21T05:04:55.617Z,82.57
2023-05-21T05:07:58.405Z,82.07
2023-05-21T05:11:01.250Z,81.86
2023-05-21T05:14:05.331Z,81.75
2023-05-21T05:17:09.920Z,81.95
2023-05-21T05:20:12.993Z,81.81
2023-05-21T05:23:16.092Z,81.38
2023-05-21T05:26:18.942Z,81.13
2023-05-21T05:29:23.065Z,80.97
2023-05-21T05:32:25.841Z,80.98
2023-05-21T05:35:28.578Z,80.63
2023-05-21T05:38:31.374Z,80.66
2023-05-21T05:41:34.100Z,80.31
2023-05-21T05:44:38.246Z,80.02
2023-05-21T05:47:41.008Z,80.00
2023-05-21T05:50:43.938Z,79.63
2023-05-21T05:53:46.671Z,79.65
2023-05-21T05:56:49.426Z,79.15
2023-05-21T05:59:53.506Z,79.14
2023-05-21T06:02:56.361Z,78.54
2023-05-21T06:05:59.220Z,78.60
2023-05-21T06:09:02.042Z,77.50
2023-05-21T06:12:05.740Z,76.17
2023-05-21T06:15:11.139Z,75.93
2023-05-21T06:18:13.914Z,75.05
2023-05-21T06:21:16.646Z,73.79
2023-05-21T06:24:19.537Z,72.52
2023-05-21T06:27:22.401Z,71.54
2023-05-21T06:30:26.560Z,70.06
2023-05-21T06:33:29.487Z,67.80
2023-05-21T06:36:32.457Z,65.15
2023-05-21T06:39:35.339Z,63.76
2023-05-21T06:42:38.142Z,62.71
2023-05-21T06:45:42.432Z,62.46
2023-05-21T06:48:45.922Z,61.98
2023-05-21T06:51:48.802Z,61.98
2023-05-21T06:54:51.581Z,61.55
2023-05-21T06:57:54.431Z,61.74
2023-05-21T07:00:58.529Z,61.16
2023-05-21T07:04:02.368Z,60.33
2023-05-21T07:07:05.744Z,59.89
2023-05-21T07:10:09.753Z,59.56
2023-05-21T07:13:12.690Z,59.07
2023-05-21T07:16:17.878Z,58.75
2023-05-21T07:19:21.233Z,58.15
2023-05-21T07:22:25.946Z,57.10
2023-05-21T07:25:30.251Z,56.73
2023-05-21T07:28:33.253Z,56.03
2023-05-21T07:31:37.837Z,55.85
2023-05-21T07:34:41.459Z,55.91
2023-05-21T07:37:44.339Z,56.39
2023-05-21T07:40:47.173Z,55.63
2023-05-21T07:43:50.406Z,55.09
2023-05-21T07:46:54.563Z,55.22
2023-05-21T07:49:58.780Z,55.62
2023-05-21T07:53:02.484Z,55.29
2023-05-21T07:56:05.609Z,55.70
2023-05-21T07:59:08.417Z,55.28
2023-05-21T08:02:12.695Z,54.82
2023-05-21T08:05:16.476Z,54.45
2023-05-21T08:08:20.139Z,55.79
2023-05-21T08:11:23.423Z,55.95
2023-05-21T08:14:26.298Z,55.83
2023-05-21T08:17:30.620Z,54.63
2023-05-21T08:20:34.362Z,55.54
2023-05-21T08:23:37.131Z,55.15
2023-05-21T08:26:39.868Z,54.70
2023-05-21T08:29:42.712Z,54.33
2023-05-21T08:32:47.046Z,53.89
2023-05-21T08:35:49.997Z,53.15
2023-05-21T08:38:52.906Z,52.73
2023-05-21T08:42:03.907Z,51.66
2023-05-21T08:45:07.764Z,52.08
2023-05-21T08:48:13.273Z,51.44
2023-05-21T08:51:17.043Z,50.85
2023-05-21T08:54:19.798Z,49.52
2023-05-21T08:57:26.293Z,50.04
2023-05-21T09:00:29.062Z,50.40
2023-05-21T09:03:33.337Z,49.74
2023-05-21T09:06:36.497Z,49.25
2023-05-21T09:09:47.244Z,49.01
2023-05-21T09:12:50.181Z,49.16
2023-05-21T09:15:52.919Z,48.81
2023-05-21T09:18:57.099Z,48.12
2023-05-21T09:22:03.840Z,47.81
2023-05-21T09:25:08.985Z,47.99
2023-05-21T09:28:16.607Z,47.59
2023-05-21T09:31:19.473Z,47.93
2023-05-21T09:34:26.371Z,47.56
2023-05-21T09:37:29.873Z,47.08
2023-05-21T09:40:32.666Z,45.83
2023-05-21T09:43:35.509Z,45.76
2023-05-21T09:46:42.517Z,46.96
2023-05-21T09:49:46.888Z,46.68
2023-05-21T09:52:52.921Z,46.92
2023-05-21T09:55:59.031Z,46.52
2023-05-21T09:59:04.696Z,46.46
2023-05-21T10:02:19.597Z,45.74
2023-05-21T10:05:27.485Z,45.82
2023-05-21T10:08:35.049Z,45.84
2023-05-21T10:11:38.298Z,45.47
2023-05-21T10:14:43.382Z,45.45
2023-05-21T10:17:47.419Z,43.32
2023-05-21T10:20:52.327Z,44.33
2023-05-21T10:23:57.464Z,44.11
2023-05-21T10:27:02.276Z,44.01
2023-05-21T10:30:06.938Z,43.15
2023-05-21T10:33:10.238Z,43.11
2023-05-21T10:36:17.587Z,42.94
2023-05-21T10:39:24.054Z,42.70
2023-05-21T10:42:48.914Z,42.54
2023-05-21T10:46:10.769Z,42.42
2023-05-21T10:49:39.736Z,42.11
2023-05-21T10:52:58.108Z,42.33
2023-05-21T10:56:12.904Z,40.40
2023-05-21T10:59:26.827Z,40.56
2023-05-21T11:02:31.082Z,40.26
2023-05-21T11:05:41.549Z,39.89
2023-05-21T11:08:48.830Z,39.49
2023-05-21T11:11:52.818Z,39.40
2023-05-21T11:14:58.414Z,39.39
2023-05-21T11:18:01.316Z,38.78
2023-05-21T11:21:07.038Z,38.28
2023-05-21T11:24:20.284Z,38.67
2023-05-21T11:27:34.187Z,38.70
2023-05-21T11:30:38.960Z,38.33
2023-05-21T11:33:43.730Z,37.83
2023-05-21T11:36:48.428Z,37.12
2023-05-21T11:39:52.756Z,37.44
2023-05-21T11:42:56.904Z,37.59
2023-05-21T11:46:00.759Z,36.51
2023-05-21T11:49:04.864Z,36.36
2023-05-21T11:52:09.558Z,35.86
2023-05-21T11:55:15.928Z,35.92
2023-05-21T11:58:19.980Z,34.54
2023-05-21T12:01:24.058Z,34.79
2023-05-21T12:04:30.844Z,35.05
2023-05-21T12:07:33.599Z,35.50
2023-05-21T12:10:39.617Z,35.01
2023-05-21T12:13:42.586Z,35.30
2023-05-21T12:16:45.614Z,35.32
2023-05-21T12:19:49.381Z,35.34
2023-05-21T12:22:52.166Z,35.31
2023-05-21T12:25:56.422Z,34.90
2023-05-21T12:28:59.691Z,34.92
2023-05-21T12:32:03.199Z,34.94
2023-05-21T12:35:06.894Z,34.47
2023-05-21T12:38:10.047Z,34.44
2023-05-21T12:41:14.339Z,34.57
2023-05-21T12:44:17.402Z,35.06
2023-05-21T12:47:20.706Z,34.32
2023-05-21T12:50:23.612Z,34.26
2023-05-21T12:53:27.046Z,33.98
2023-05-21T12:56:45.568Z,33.32
2023-05-21T12:59:50.785Z,32.98
2023-05-21T13:02:53.630Z,33.18
2023-05-21T13:05:59.765Z,32.84
2023-05-21T13:09:02.542Z,32.64
2023-05-21T13:12:07.801Z,32.60
2023-05-21T13:15:11.668Z,31.69
2023-05-21T13:18:16.057Z,32.22
2023-05-21T13:21:19.030Z,31.87
2023-05-21T13:24:22.271Z,31.66
2023-05-21T13:27:26.523Z,31.42
2023-05-21T13:30:29.869Z,31.52
2023-05-21T13:33:32.879Z,31.48
2023-05-21T13:36:36.437Z,32.04
2023-05-21T13:39:39.538Z,31.44
2023-05-21T13:42:44.385Z,32.06
2023-05-21T13:45:50.019Z,31.76
2023-05-21T13:48:52.853Z,32.28
2023-05-21T13:51:55.776Z,32.15
2023-05-21T13:54:58.817Z,32.08
2023-05-21T13:58:03.012Z,32.10
2023-05-21T14:01:07.295Z,32.40
2023-05-21T14:04:10.400Z,32.27
2023-05-21T14:07:13.304Z,32.69
2023-05-21T14:10:16.221Z,32.62
2023-05-21T14:13:21.076Z,32.65
2023-05-21T14:16:25.236Z,32.67
2023-05-21T14:19:30.517Z,32.96
2023-05-21T14:22:33.350Z,32.74
2023-05-21T14:25:36.487Z,32.70
2023-05-21T14:28:40.798Z,33.03
2023-05-21T14:31:44.166Z,32.63
2023-05-21T14:34:47.124Z,33.12
2023-05-21T14:37:50.530Z,32.84
2023-05-21T14:40:53.309Z,32.50
2023-05-21T14:43:58.125Z,33.17
2023-05-21T14:47:00.897Z,32.89
2023-05-21T14:50:04.218Z,33.29
2023-05-21T14:53:07.096Z,32.78
2023-05-21T14:56:10.110Z,32.92
2023-05-21T14:59:14.378Z,32.52
2023-05-21T15:02:17.870Z,32.32
2023-05-21T15:05:21.151Z,31.98
2023-05-21T15:08:23.902Z,31.79
2023-05-21T15:11:26.684Z,32.03
2023-05-21T15:14:30.918Z,32.25
2023-05-21T15:17:34.141Z,32.25
2023-05-21T15:20:36.964Z,32.11
2023-05-21T15:23:39.756Z,31.91
2023-05-21T15:26:42.612Z,32.05
2023-05-21T15:29:46.816Z,32.12
2023-05-21T15:32:49.733Z,32.03
2023-05-21T15:35:52.676Z,32.24
2023-05-21T15:38:55.661Z,32.45
2023-05-21T15:41:58.409Z,33.35
2023-05-21T15:45:02.640Z,33.36
2023-05-21T15:48:05.914Z,33.59
2023-05-21T15:51:08.859Z,34.17
2023-05-21T15:54:11.641Z,33.93
2023-05-21T15:57:14.460Z,33.97
2023-05-21T16:00:18.798Z,34.08
2023-05-21T16:03:22.266Z,34.09
2023-05-21T16:06:25.837Z,34.47
2023-05-21T16:09:28.793Z,34.78
2023-05-21T16:12:31.794Z,34.59
2023-05-21T16:15:36.264Z,35.02
2023-05-21T16:18:39.200Z,35.16
2023-05-21T16:21:42.643Z,36.11
2023-05-21T16:24:45.404Z,36.59
2023-05-21T16:27:48.658Z,36.77
2023-05-21T16:30:52.949Z,37.13
2023-05-21T16:33:55.889Z,36.60
2023-05-21T16:36:59.131Z,36.62
2023-05-21T16:40:02.448Z,37.33
2023-05-21T16:43:05.375Z,36.56
2023-05-21T16:46:09.613Z,36.70
2023-05-21T16:49:12.326Z,36.66
2023-05-21T16:52:15.074Z,36.90
2023-05-21T16:55:18.252Z,37.67
2023-05-21T16:58:21.184Z,38.42
2023-05-21T17:01:25.659Z,38.15
2023-05-21T17:04:28.511Z,38.28
2023-05-21T17:07:31.720Z,38.13
2023-05-21T17:10:34.857Z,37.99
2023-05-21T17:13:37.633Z,38.26
2023-05-21T17:16:42.932Z,38.47
2023-05-21T17:19:45.746Z,37.95
2023-05-21T17:22:48.860Z,38.38
2023-05-21T17:25:51.988Z,38.90
2023-05-21T17:28:54.866Z,39.01
2023-05-21T17:31:59.165Z,39.74
2023-05-21T17:35:02.468Z,40.01
2023-05-21T17:38:05.287Z,41.04
2023-05-21T17:41:08.213Z,41.75
2023-05-21T17:44:11.416Z,42.02
2023-05-21T17:47:15.603Z,41.93
2023-05-21T17:50:18.419Z,42.73
2023-05-21T17:53:21.222Z,43.26
2023-05-21T17:56:24.105Z,43.63
2023-05-21T17:59:26.880Z,43.50
2023-05-21T18:02:31.034Z,43.49
2023-05-21T18:05:33.859Z,43.70
2023-05-21T18:08:36.684Z,44.08
2023-05-21T18:11:40.302Z,44.07
2023-05-21T18:14:43.118Z,44.28
2023-05-21T18:17:48.414Z,45.16
2023-05-21T18:20:51.316Z,46.06
2023-05-21T18:23:54.146Z,46.47
2023-05-21T18:26:56.976Z,47.17
2023-05-21T18:30:03.320Z,48.01
2023-05-21T18:33:08.328Z,48.32
2023-05-21T18:36:11.598Z,49.35
2023-05-21T18:39:14.332Z,50.99
2023-05-21T18:42:17.323Z,51.90
2023-05-21T18:45:20.088Z,52.43
2023-05-21T18:48:24.228Z,52.85
2023-05-21T18:51:27.067Z,53.42
2023-05-21T18:54:29.855Z,54.29
2023-05-21T18:57:34.361Z,54.68
2023-05-21T19:00:39.426Z,54.81
2023-05-21T19:03:43.784Z,55.14
2023-05-21T19:06:47.115Z,55.71
2023-05-21T19:09:49.977Z,56.97
2023-05-21T19:12:52.768Z,57.69
2023-05-21T19:15:57.499Z,57.91
2023-05-21T19:19:02.023Z,58.06
2023-05-21T19:22:04.956Z,57.93
2023-05-21T19:25:08.388Z,58.00
2023-05-21T19:28:11.359Z,58.07
2023-05-21T19:31:14.185Z,58.50
2023-05-21T19:34:18.453Z,58.77
2023-05-21T19:37:21.438Z,59.39
2023-05-21T19:40:24.211Z,59.86
2023-05-21T19:43:28.009Z,60.83
2023-05-21T19:46:32.039Z,61.59
2023-05-21T19:49:36.124Z,61.67
2023-05-21T19:52:39.100Z,61.94
2023-05-21T19:55:41.937Z,62.35
2023-05-21T19:58:47.217Z,62.42
2023-05-21T20:01:50.253Z,62.73
2023-05-21T20:04:57.475Z,62.85
2023-05-21T20:08:00.203Z,62.63
2023-05-21T20:11:03.459Z,63.13
2023-05-21T20:14:06.794Z,63.08
2023-05-21T20:17:10.375Z,63.24
2023-05-21T20:20:14.783Z,63.54
2023-05-21T20:23:17.848Z,63.80
2023-05-21T20:26:21.823Z,63.89
2023-05-21T20:29:24.648Z,64.32
2023-05-21T20:32:27.502Z,64.39
2023-05-21T20:35:31.945Z,64.37
2023-05-21T20:38:36.910Z,64.64
2023-05-21T20:41:39.656Z,64.89
2023-05-21T20:44:45.086Z,65.15
2023-05-21T20:47:50.080Z,65.30
2023-05-21T20:50:54.371Z,65.70
2023-05-21T20:53:57.226Z,65.92
2023-05-21T20:57:00.145Z,65.95
2023-05-21T21:00:05.448Z,66.31
2023-05-21T21:03:10.368Z,67.00
2023-05-21T21:06:14.694Z,68.43
2023-05-21T21:09:17.665Z,69.48
2023-05-21T21:12:25.295Z,70.05
2023-05-21T21:15:29.469Z,70.92
2023-05-21T21:18:32.197Z,71.33
2023-05-21T21:21:36.642Z,71.91
2023-05-21T21:24:39.407Z,71.92
2023-05-21T21:27:42.473Z,72.01
2023-05-21T21:30:45.812Z,72.19
2023-05-21T21:33:48.631Z,72.07
2023-05-21T21:36:52.888Z,72.22
2023-05-21T21:39:55.815Z,72.27
2023-05-21T21:42:59.436Z,72.68
2023-05-21T21:46:02.527Z,72.61
2023-05-21T21:49:05.502Z,73.71
2023-05-21T21:52:10.869Z,73.83
2023-05-21T21:55:13.709Z,74.25
2023-05-21T21:58:16.522Z,74.23
2023-05-21T22:01:19.769Z,74.46
2023-05-21T22:04:22.662Z,74.47
2023-05-21T22:07:28.901Z,74.43
2023-05-21T22:10:33.493Z,75.05
2023-05-21T22:13:36.680Z,75.84
2023-05-21T22:16:41.579Z,76.43
2023-05-21T22:19:44.505Z,77.38
2023-05-21T22:22:48.783Z,78.10
2023-05-21T22:25:51.714Z,77.98
2023-05-21T22:28:54.503Z,78.36
2023-05-21T22:31:57.412Z,79.22
2023-05-21T22:35:00.200Z,79.68
2023-05-21T22:38:04.320Z,79.56
2023-05-21T22:41:08.500Z,79.15
2023-05-21T22:44:11.284Z,79.43
2023-05-21T22:47:14.092Z,79.64
2023-05-21T22:50:18.064Z,79.86
2023-05-21T22:53:23.343Z,79.73
2023-05-21T22:56:26.335Z,79.79
2023-05-21T22:59:29.620Z,79.74
2023-05-21T23:02:32.491Z,79.84
2023-05-21T23:05:35.262Z,80.01
2023-05-21T23:08:39.571Z,80.08
2023-05-21T23:11:42.351Z,79.93
2023-05-21T23:14:45.072Z,80.13
2023-05-21T23:17:47.824Z,79.91
2023-05-21T23:20:50.953Z,79.88
2023-05-21T23:23:55.131Z,80.12
2023-05-21T23:27:02.778Z,80.53
2023-05-21T23:30:06.279Z,80.12
2023-05-21T23:33:09.879Z,80.38
2023-05-21T23:36:12.717Z,80.08
2023-05-21T23:39:16.859Z,80.29
2023-05-21T23:42:19.866Z,80.27
2023-05-21T23:45:22.702Z,80.22
2023-05-21T23:48:25.692Z,79.95
2023-05-21T23:51:28.565Z,79.75
2023-05-21T23:54:32.724Z,80.08
2023-05-21T23:57:35.472Z,80.08
